sensor_id;sensor_type;location;lat;lon;timestamp;P1;durP1;ratioP1;P2;durP2;ratioP2
80123;SDS011;69433;48.642;9.142;2023-05-07T00:01:46;5.00;;;2.80;;
80123;SDS011;69433;48.642;9.142;2023-05-07T00:04:13;3.65;;;2.60;;
80123;SDS011;69433;48.642;9.142;2023-05-07T00:06:38;5.28;;;2.72;;
80123;SDS011;69433;48.642;9.142;2023-05-07T00:09:04;3.42;;;2.50;;
80123;SDS011;69433;48.642;9.142;2023-05-07T00:11:30;4.72;;;2.70;;
80123;SDS011;69433;48.642;9.142;2023-05-07T00:13:55;4.07;;;2.33;;
80123;SDS011;69433;48.642;9.142;2023-05-07T00:16:21;3.92;;;2.45;;
80123;SDS011;69433;48.642;9.142;2023-05-07T00:18:46;4.63;;;2.58;;
80123;SDS011;69433;48.642;9.142;2023-05-07T00:21:11;4.80;;;2.80;;
80123;SDS011;69433;48.642;9.142;2023-05-07T00:23:37;5.47;;;2.70;;
80123;SDS011;69433;48.642;9.142;2023-05-07T00:26:03;4.50;;;2.42;;
80123;SDS011;69433;48.642;9.142;2023-05-07T00:28:28;5.70;;;2.63;;
80123;SDS011;69433;48.642;9.142;2023-05-07T00:30:54;2.80;;;2.17;;
80123;SDS011;69433;48.642;9.142;2023-05-07T00:33:19;4.22;;;2.63;;
80123;SDS011;69433;48.642;9.142;2023-05-07T00:35:46;4.80;;;2.50;;
80123;SDS011;69433;48.642;9.142;2023-05-07T00:38:11;3.60;;;2.70;;
80123;SDS011;69433;48.642;9.142;2023-05-07T00:40:36;6.47;;;2.60;;
80123;SDS011;69433;48.642;9.142;2023-05-07T00:43:02;4.65;;;2.63;;
80123;SDS011;69433;48.642;9.142;2023-05-07T00:45:28;3.88;;;2.45;;
80123;SDS011;69433;48.642;9.142;2023-05-07T00:47:54;5.00;;;2.67;;
80123;SDS011;69433;48.642;9.142;2023-05-07T00:50:23;4.85;;;2.60;;
80123;SDS011;69433;48.642;9.142;2023-05-07T00:52:49;3.80;;;2.40;;
80123;SDS011;69433;48.642;9.142;2023-05-07T00:55:15;3.88;;;2.53;;
80123;SDS011;69433;48.642;9.142;2023-05-07T00:57:41;5.30;;;2.40;;
80123;SDS011;69433;48.642;9.142;2023-05-07T01:00:07;4.22;;;2.60;;
80123;SDS011;69433;48.642;9.142;2023-05-07T01:02:35;4.15;;;2.63;;
80123;SDS011;69433;48.642;9.142;2023-05-07T01:05:01;3.63;;;2.50;;
80123;SDS011;69433;48.642;9.142;2023-05-07T01:07:28;4.05;;;2.90;;
80123;SDS011;69433;48.642;9.142;2023-05-07T01:09:54;4.00;;;2.78;;
80123;SDS011;69433;48.642;9.142;2023-05-07T01:12:20;4.45;;;2.70;;
80123;SDS011;69433;48.642;9.142;2023-05-07T01:14:45;5.63;;;2.80;;
80123;SDS011;69433;48.642;9.142;2023-05-07T01:17:11;5.05;;;3.20;;
80123;SDS011;69433;48.642;9.142;2023-05-07T01:19:36;4.00;;;2.78;;
80123;SDS011;69433;48.642;9.142;2023-05-07T01:22:02;8.07;;;2.70;;
80123;SDS011;69433;48.642;9.142;2023-05-07T01:24:32;5.28;;;2.72;;
80123;SDS011;69433;48.642;9.142;2023-05-07T01:26:57;5.93;;;2.97;;
80123;SDS011;69433;48.642;9.142;2023-05-07T01:29:23;4.30;;;2.53;;
80123;SDS011;69433;48.642;9.142;2023-05-07T01:31:48;6.18;;;3.25;;
80123;SDS011;69433;48.642;9.142;2023-05-07T01:34:16;4.88;;;2.65;;
80123;SDS011;69433;48.642;9.142;2023-05-07T01:36:43;11.52;;;3.22;;
80123;SDS011;69433;48.642;9.142;2023-05-07T01:39:09;4.90;;;3.03;;
80123;SDS011;69433;48.642;9.142;2023-05-07T01:41:35;6.47;;;3.22;;
80123;SDS011;69433;48.642;9.142;2023-05-07T01:44:00;7.18;;;3.05;;
80123;SDS011;69433;48.642;9.142;2023-05-07T01:46:28;7.60;;;3.00;;
80123;SDS011;69433;48.642;9.142;2023-05-07T01:48:55;5.72;;;2.60;;
80123;SDS011;69433;48.642;9.142;2023-05-07T01:51:20;6.63;;;2.90;;
80123;SDS011;69433;48.642;9.142;2023-05-07T01:53:47;6.70;;;2.53;;
80123;SDS011;69433;48.642;9.142;2023-05-07T01:56:15;5.32;;;2.50;;
80123;SDS011;69433;48.642;9.142;2023-05-07T01:58:42;5.85;;;2.75;;
80123;SDS011;69433;48.642;9.142;2023-05-07T02:01:07;4.75;;;2.78;;
80123;SDS011;69433;48.642;9.142;2023-05-07T02:03:32;7.25;;;2.63;;
80123;SDS011;69433;48.642;9.142;2023-05-07T02:05:58;7.43;;;2.78;;
80123;SDS011;69433;48.642;9.142;2023-05-07T02:08:23;5.25;;;3.05;;
80123;SDS011;69433;48.642;9.142;2023-05-07T02:10:48;6.28;;;2.90;;
80123;SDS011;69433;48.642;9.142;2023-05-07T02:13:15;6.45;;;2.53;;
80123;SDS011;69433;48.642;9.142;2023-05-07T02:15:40;5.53;;;2.65;;
80123;SDS011;69433;48.642;9.142;2023-05-07T02:18:06;3.53;;;2.42;;
80123;SDS011;69433;48.642;9.142;2023-05-07T02:20:33;5.90;;;2.50;;
80123;SDS011;69433;48.642;9.142;2023-05-07T02:22:59;6.30;;;2.63;;
80123;SDS011;69433;48.642;9.142;2023-05-07T02:25:25;4.05;;;2.42;;
80123;SDS011;69433;48.642;9.142;2023-05-07T02:27:50;6.00;;;2.83;;
80123;SDS011;69433;48.642;9.142;2023-05-07T02:30:15;5.03;;;2.50;;
80123;SDS011;69433;48.642;9.142;2023-05-07T02:32:41;7.05;;;4.15;;
80123;SDS011;69433;48.642;9.142;2023-05-07T02:35:06;4.57;;;2.83;;
80123;SDS011;69433;48.642;9.142;2023-05-07T02:37:32;6.63;;;2.65;;
80123;SDS011;69433;48.642;9.142;2023-05-07T02:39:57;4.65;;;2.72;;
80123;SDS011;69433;48.642;9.142;2023-05-07T02:42:22;5.13;;;2.65;;
80123;SDS011;69433;48.642;9.142;2023-05-07T02:44:48;4.50;;;2.53;;
80123;SDS011;69433;48.642;9.142;2023-05-07T02:47:14;4.53;;;2.50;;
80123;SDS011;69433;48.642;9.142;2023-05-07T02:49:40;6.07;;;3.03;;
80123;SDS011;69433;48.642;9.142;2023-05-07T02:52:05;4.75;;;2.50;;
80123;SDS011;69433;48.642;9.142;2023-05-07T02:54:31;6.78;;;2.58;;
80123;SDS011;69433;48.642;9.142;2023-05-07T02:56:56;6.20;;;2.70;;
80123;SDS011;69433;48.642;9.142;2023-05-07T02:59:22;5.60;;;2.60;;
80123;SDS011;69433;48.642;9.142;2023-05-07T03:01:48;4.28;;;2.50;;
80123;SDS011;69433;48.642;9.142;2023-05-07T03:04:14;5.68;;;2.50;;
80123;SDS011;69433;48.642;9.142;2023-05-07T03:06:39;4.65;;;2.58;;
80123;SDS011;69433;48.642;9.142;2023-05-07T03:09:04;3.45;;;2.25;;
80123;SDS011;69433;48.642;9.142;2023-05-07T03:11:29;5.10;;;2.35;;
80123;SDS011;69433;48.642;9.142;2023-05-07T03:13:55;3.95;;;2.58;;
80123;SDS011;69433;48.642;9.142;2023-05-07T03:16:20;4.07;;;2.72;;
80123;SDS011;69433;48.642;9.142;2023-05-07T03:18:45;4.55;;;2.38;;
80123;SDS011;69433;48.642;9.142;2023-05-07T03:21:11;3.78;;;2.78;;
80123;SDS011;69433;48.642;9.142;2023-05-07T03:23:36;3.78;;;2.53;;
80123;SDS011;69433;48.642;9.142;2023-05-07T03:26:01;6.88;;;2.65;;
80123;SDS011;69433;48.642;9.142;2023-05-07T03:28:27;4.03;;;2.50;;
80123;SDS011;69433;48.642;9.142;2023-05-07T03:30:52;4.40;;;2.20;;
80123;SDS011;69433;48.642;9.142;2023-05-07T03:33:17;5.93;;;2.50;;
80123;SDS011;69433;48.642;9.142;2023-05-07T03:35:43;5.35;;;2.30;;
80123;SDS011;69433;48.642;9.142;2023-05-07T03:38:08;4.68;;;2.33;;
80123;SDS011;69433;48.642;9.142;2023-05-07T03:40:33;4.78;;;2.50;;
80123;SDS011;69433;48.642;9.142;2023-05-07T03:42:59;3.92;;;2.50;;
80123;SDS011;69433;48.642;9.142;2023-05-07T03:45:25;3.47;;;2.33;;
80123;SDS011;69433;48.642;9.142;2023-05-07T03:47:50;4.25;;;2.42;;
80123;SDS011;69433;48.642;9.142;2023-05-07T03:50:16;3.20;;;2.38;;
80123;SDS011;69433;48.642;9.142;2023-05-07T03:52:41;4.25;;;2.65;;
80123;SDS011;69433;48.642;9.142;2023-05-07T03:55:06;4.68;;;2.30;;
80123;SDS011;69433;48.642;9.142;2023-05-07T03:57:32;3.88;;;2.10;;
80123;SDS011;69433;48.642;9.142;2023-05-07T03:59:57;4.63;;;2.30;;
80123;SDS011;69433;48.642;9.142;2023-05-07T04:02:22;3.30;;;2.33;;
80123;SDS011;69433;48.642;9.142;2023-05-07T04:04:48;3.08;;;2.22;;
80123;SDS011;69433;48.642;9.142;2023-05-07T04:07:14;5.15;;;2.33;;
80123;SDS011;69433;48.642;9.142;2023-05-07T04:09:40;3.97;;;2.20;;
80123;SDS011;69433;48.642;9.142;2023-05-07T04:12:05;4.43;;;2.25;;
80123;SDS011;69433;48.642;9.142;2023-05-07T04:14:31;3.22;;;2.22;;
80123;SDS011;69433;48.642;9.142;2023-05-07T04:16:57;3.83;;;2.35;;
80123;SDS011;69433;48.642;9.142;2023-05-07T04:19:23;3.83;;;2.13;;
80123;SDS011;69433;48.642;9.142;2023-05-07T04:21:50;4.95;;;2.38;;
80123;SDS011;69433;48.642;9.142;2023-05-07T04:24:16;3.20;;;2.30;;
80123;SDS011;69433;48.642;9.142;2023-05-07T04:26:41;3.45;;;2.40;;
80123;SDS011;69433;48.642;9.142;2023-05-07T04:29:06;3.72;;;2.30;;
80123;SDS011;69433;48.642;9.142;2023-05-07T04:31:32;3.88;;;2.25;;
80123;SDS011;69433;48.642;9.142;2023-05-07T04:33:57;3.53;;;2.10;;
80123;SDS011;69433;48.642;9.142;2023-05-07T04:36:23;3.58;;;2.30;;
80123;SDS011;69433;48.642;9.142;2023-05-07T04:38:52;3.47;;;2.40;;
80123;SDS011;69433;48.642;9.142;2023-05-07T04:41:17;4.30;;;2.55;;
80123;SDS011;69433;48.642;9.142;2023-05-07T04:43:43;3.80;;;2.35;;
80123;SDS011;69433;48.642;9.142;2023-05-07T04:46:08;3.78;;;2.20;;
80123;SDS011;69433;48.642;9.142;2023-05-07T04:48:33;3.53;;;2.13;;
80123;SDS011;69433;48.642;9.142;2023-05-07T04:50:59;3.30;;;2.50;;
80123;SDS011;69433;48.642;9.142;2023-05-07T04:53:24;3.50;;;2.40;;
80123;SDS011;69433;48.642;9.142;2023-05-07T04:55:54;3.30;;;2.33;;
80123;SDS011;69433;48.642;9.142;2023-05-07T04:58:21;4.03;;;2.33;;
80123;SDS011;69433;48.642;9.142;2023-05-07T05:00:47;6.05;;;2.30;;
80123;SDS011;69433;48.642;9.142;2023-05-07T05:03:12;3.90;;;2.10;;
80123;SDS011;69433;48.642;9.142;2023-05-07T05:05:37;4.22;;;2.10;;
80123;SDS011;69433;48.642;9.142;2023-05-07T05:08:03;2.95;;;2.30;;
80123;SDS011;69433;48.642;9.142;2023-05-07T05:10:28;3.67;;;2.25;;
80123;SDS011;69433;48.642;9.142;2023-05-07T05:12:53;3.13;;;2.28;;
80123;SDS011;69433;48.642;9.142;2023-05-07T05:15:19;3.13;;;1.95;;
80123;SDS011;69433;48.642;9.142;2023-05-07T05:17:44;3.10;;;2.20;;
80123;SDS011;69433;48.642;9.142;2023-05-07T05:20:10;3.25;;;2.22;;
80123;SDS011;69433;48.642;9.142;2023-05-07T05:22:39;3.08;;;2.20;;
80123;SDS011;69433;48.642;9.142;2023-05-07T05:25:04;4.47;;;2.40;;
80123;SDS011;69433;48.642;9.142;2023-05-07T05:27:30;4.97;;;2.13;;
80123;SDS011;69433;48.642;9.142;2023-05-07T05:29:55;3.13;;;2.22;;
80123;SDS011;69433;48.642;9.142;2023-05-07T05:32:20;4.00;;;2.15;;
80123;SDS011;69433;48.642;9.142;2023-05-07T05:34:45;3.63;;;2.00;;
80123;SDS011;69433;48.642;9.142;2023-05-07T05:37:11;2.95;;;2.17;;
80123;SDS011;69433;48.642;9.142;2023-05-07T05:39:36;5.68;;;2.30;;
80123;SDS011;69433;48.642;9.142;2023-05-07T05:42:01;4.07;;;2.25;;
80123;SDS011;69433;48.642;9.142;2023-05-07T05:44:27;3.00;;;2.33;;
80123;SDS011;69433;48.642;9.142;2023-05-07T05:46:52;3.60;;;2.50;;
80123;SDS011;69433;48.642;9.142;2023-05-07T05:49:20;3.10;;;2.05;;
80123;SDS011;69433;48.642;9.142;2023-05-07T05:51:45;3.05;;;2.05;;
80123;SDS011;69433;48.642;9.142;2023-05-07T05:54:11;3.25;;;2.28;;
80123;SDS011;69433;48.642;9.142;2023-05-07T05:56:36;6.03;;;2.28;;
80123;SDS011;69433;48.642;9.142;2023-05-07T05:59:03;4.40;;;2.22;;
80123;SDS011;69433;48.642;9.142;2023-05-07T06:01:28;5.38;;;2.92;;
80123;SDS011;69433;48.642;9.142;2023-05-07T06:03:54;4.65;;;2.80;;
80123;SDS011;69433;48.642;9.142;2023-05-07T06:06:21;10.18;;;2.15;;
80123;SDS011;69433;48.642;9.142;2023-05-07T06:08:46;9.82;;;2.45;;
80123;SDS011;69433;48.642;9.142;2023-05-07T06:11:11;4.80;;;2.25;;
80123;SDS011;69433;48.642;9.142;2023-05-07T06:13:37;4.88;;;2.20;;
80123;SDS011;69433;48.642;9.142;2023-05-07T06:16:02;2.83;;;2.35;;
80123;SDS011;69433;48.642;9.142;2023-05-07T06:18:27;6.63;;;2.35;;
80123;SDS011;69433;48.642;9.142;2023-05-07T06:20:53;3.47;;;2.35;;
80123;SDS011;69433;48.642;9.142;2023-05-07T06:23:18;4.68;;;2.30;;
80123;SDS011;69433;48.642;9.142;2023-05-07T06:25:49;3.00;;;2.35;;
80123;SDS011;69433;48.642;9.142;2023-05-07T06:28:15;4.15;;;2.72;;
80123;SDS011;69433;48.642;9.142;2023-05-07T06:30:41;5.25;;;2.17;;
80123;SDS011;69433;48.642;9.142;2023-05-07T06:33:06;2.90;;;2.10;;
80123;SDS011;69433;48.642;9.142;2023-05-07T06:35:32;6.18;;;2.15;;
80123;SDS011;69433;48.642;9.142;2023-05-07T06:37:57;5.80;;;2.25;;
80123;SDS011;69433;48.642;9.142;2023-05-07T06:40:22;3.28;;;2.30;;
80123;SDS011;69433;48.642;9.142;2023-05-07T06:42:48;3.20;;;2.20;;
80123;SDS011;69433;48.642;9.142;2023-05-07T06:45:13;3.40;;;2.08;;
80123;SDS011;69433;48.642;9.142;2023-05-07T06:47:40;3.53;;;2.38;;
80123;SDS011;69433;48.642;9.142;2023-05-07T06:50:05;4.30;;;2.22;;
80123;SDS011;69433;48.642;9.142;2023-05-07T06:52:31;2.90;;;2.13;;
80123;SDS011;69433;48.642;9.142;2023-05-07T06:54:56;3.85;;;2.10;;
80123;SDS011;69433;48.642;9.142;2023-05-07T06:57:22;3.40;;;2.38;;
80123;SDS011;69433;48.642;9.142;2023-05-07T06:59:47;3.40;;;2.00;;
80123;SDS011;69433;48.642;9.142;2023-05-07T07:02:12;3.92;;;2.25;;
80123;SDS011;69433;48.642;9.142;2023-05-07T07:04:37;3.67;;;1.98;;
80123;SDS011;69433;48.642;9.142;2023-05-07T07:07:03;3.45;;;2.35;;
80123;SDS011;69433;48.642;9.142;2023-05-07T07:09:28;3.92;;;1.88;;
80123;SDS011;69433;48.642;9.142;2023-05-07T07:11:53;4.38;;;2.35;;
80123;SDS011;69433;48.642;9.142;2023-05-07T07:14:19;3.95;;;2.22;;
80123;SDS011;69433;48.642;9.142;2023-05-07T07:16:45;3.40;;;2.08;;
80123;SDS011;69433;48.642;9.142;2023-05-07T07:19:12;5.43;;;2.17;;
80123;SDS011;69433;48.642;9.142;2023-05-07T07:21:37;3.20;;;2.20;;
80123;SDS011;69433;48.642;9.142;2023-05-07T07:24:02;4.88;;;2.10;;
80123;SDS011;69433;48.642;9.142;2023-05-07T07:26:28;3.30;;;1.95;;
80123;SDS011;69433;48.642;9.142;2023-05-07T07:28:53;3.67;;;2.25;;
80123;SDS011;69433;48.642;9.142;2023-05-07T07:31:18;3.15;;;2.03;;
80123;SDS011;69433;48.642;9.142;2023-05-07T07:33:44;4.03;;;2.20;;
80123;SDS011;69433;48.642;9.142;2023-05-07T07:36:09;4.25;;;2.30;;
80123;SDS011;69433;48.642;9.142;2023-05-07T07:38:35;2.78;;;1.90;;
80123;SDS011;69433;48.642;9.142;2023-05-07T07:41:00;4.03;;;2.20;;
80123;SDS011;69433;48.642;9.142;2023-05-07T07:43:26;3.08;;;2.10;;
80123;SDS011;69433;48.642;9.142;2023-05-07T07:45:51;7.38;;;2.33;;
80123;SDS011;69433;48.642;9.142;2023-05-07T07:48:17;3.40;;;2.13;;
80123;SDS011;69433;48.642;9.142;2023-05-07T07:50:42;3.28;;;2.35;;
80123;SDS011;69433;48.642;9.142;2023-05-07T07:53:07;4.20;;;2.38;;
80123;SDS011;69433;48.642;9.142;2023-05-07T07:55:34;6.15;;;2.20;;
80123;SDS011;69433;48.642;9.142;2023-05-07T07:58:03;3.97;;;1.92;;
80123;SDS011;69433;48.642;9.142;2023-05-07T08:00:28;3.10;;;2.15;;
80123;SDS011;69433;48.642;9.142;2023-05-07T08:02:53;3.53;;;2.10;;
80123;SDS011;69433;48.642;9.142;2023-05-07T08:05:19;3.40;;;2.20;;
80123;SDS011;69433;48.642;9.142;2023-05-07T08:07:44;4.40;;;2.00;;
80123;SDS011;69433;48.642;9.142;2023-05-07T08:10:11;4.63;;;1.90;;
80123;SDS011;69433;48.642;9.142;2023-05-07T08:12:36;3.20;;;2.00;;
80123;SDS011;69433;48.642;9.142;2023-05-07T08:15:02;3.17;;;2.05;;
80123;SDS011;69433;48.642;9.142;2023-05-07T08:17:27;3.42;;;2.00;;
80123;SDS011;69433;48.642;9.142;2023-05-07T08:19:52;3.20;;;2.13;;
80123;SDS011;69433;48.642;9.142;2023-05-07T08:22:17;3.70;;;1.95;;
80123;SDS011;69433;48.642;9.142;2023-05-07T08:24:43;2.75;;;1.73;;
80123;SDS011;69433;48.642;9.142;2023-05-07T08:27:09;3.55;;;2.25;;
80123;SDS011;69433;48.642;9.142;2023-05-07T08:29:36;2.97;;;1.90;;
80123;SDS011;69433;48.642;9.142;2023-05-07T08:32:01;5.55;;;2.08;;
80123;SDS011;69433;48.642;9.142;2023-05-07T08:34:26;5.10;;;2.05;;
80123;SDS011;69433;48.642;9.142;2023-05-07T08:36:52;4.32;;;2.10;;
80123;SDS011;69433;48.642;9.142;2023-05-07T08:39:17;3.47;;;1.95;;
80123;SDS011;69433;48.642;9.142;2023-05-07T08:41:44;4.07;;;2.17;;
80123;SDS011;69433;48.642;9.142;2023-05-07T08:44:13;4.15;;;1.98;;
80123;SDS011;69433;48.642;9.142;2023-05-07T08:46:41;3.83;;;1.90;;
80123;SDS011;69433;48.642;9.142;2023-05-07T08:49:06;4.07;;;1.98;;
80123;SDS011;69433;48.642;9.142;2023-05-07T08:51:32;3.00;;;1.90;;
80123;SDS011;69433;48.642;9.142;2023-05-07T08:53:58;2.60;;;1.90;;
80123;SDS011;69433;48.642;9.142;2023-05-07T08:56:24;7.65;;;2.13;;
80123;SDS011;69433;48.642;9.142;2023-05-07T08:58:50;2.65;;;1.83;;
80123;SDS011;69433;48.642;9.142;2023-05-07T09:01:16;3.80;;;1.80;;
80123;SDS011;69433;48.642;9.142;2023-05-07T09:03:44;3.70;;;1.90;;
80123;SDS011;69433;48.642;9.142;2023-05-07T09:06:10;3.30;;;1.90;;
80123;SDS011;69433;48.642;9.142;2023-05-07T09:08:35;7.38;;;2.00;;
80123;SDS011;69433;48.642;9.142;2023-05-07T09:11:01;2.72;;;1.70;;
80123;SDS011;69433;48.642;9.142;2023-05-07T09:13:27;2.15;;;1.60;;
80123;SDS011;69433;48.642;9.142;2023-05-07T09:15:52;2.97;;;1.80;;
80123;SDS011;69433;48.642;9.142;2023-05-07T09:18:17;4.53;;;2.25;;
80123;SDS011;69433;48.642;9.142;2023-05-07T09:20:43;2.85;;;1.80;;
80123;SDS011;69433;48.642;9.142;2023-05-07T09:23:08;2.88;;;1.90;;
80123;SDS011;69433;48.642;9.142;2023-05-07T09:25:34;2.30;;;1.80;;
80123;SDS011;69433;48.642;9.142;2023-05-07T09:28:00;3.22;;;2.00;;
80123;SDS011;69433;48.642;9.142;2023-05-07T09:30:27;3.13;;;1.95;;
80123;SDS011;69433;48.642;9.142;2023-05-07T09:32:54;3.90;;;2.10;;
80123;SDS011;69433;48.642;9.142;2023-05-07T09:35:19;4.22;;;1.70;;
80123;SDS011;69433;48.642;9.142;2023-05-07T09:37:46;2.78;;;1.65;;
80123;SDS011;69433;48.642;9.142;2023-05-07T09:40:22;3.58;;;2.03;;
80123;SDS011;69433;48.642;9.142;2023-05-07T09:42:51;2.70;;;1.95;;
80123;SDS011;69433;48.642;9.142;2023-05-07T09:45:26;2.10;;;1.80;;
80123;SDS011;69433;48.642;9.142;2023-05-07T09:47:55;3.17;;;1.70;;
80123;SDS011;69433;48.642;9.142;2023-05-07T09:50:26;3.35;;;1.98;;
80123;SDS011;69433;48.642;9.142;2023-05-07T09:52:53;3.20;;;1.85;;
80123;SDS011;69433;48.642;9.142;2023-05-07T09:55:20;2.50;;;1.73;;
80123;SDS011;69433;48.642;9.142;2023-05-07T09:57:46;3.53;;;1.70;;
80123;SDS011;69433;48.642;9.142;2023-05-07T10:00:14;3.33;;;2.00;;
80123;SDS011;69433;48.642;9.142;2023-05-07T10:02:42;2.47;;;1.77;;
80123;SDS011;69433;48.642;9.142;2023-05-07T10:05:13;3.33;;;1.95;;
80123;SDS011;69433;48.642;9.142;2023-05-07T10:07:40;2.72;;;1.70;;
80123;SDS011;69433;48.642;9.142;2023-05-07T10:10:06;6.43;;;2.10;;
80123;SDS011;69433;48.642;9.142;2023-05-07T10:12:32;2.22;;;1.60;;
80123;SDS011;69433;48.642;9.142;2023-05-07T10:15:04;2.40;;;1.60;;
80123;SDS011;69433;48.642;9.142;2023-05-07T10:17:31;3.05;;;2.05;;
80123;SDS011;69433;48.642;9.142;2023-05-07T10:19:57;6.68;;;1.90;;
80123;SDS011;69433;48.642;9.142;2023-05-07T10:22:23;3.20;;;1.83;;
80123;SDS011;69433;48.642;9.142;2023-05-07T10:24:51;2.58;;;1.90;;
80123;SDS011;69433;48.642;9.142;2023-05-07T10:27:19;2.53;;;1.70;;
80123;SDS011;69433;48.642;9.142;2023-05-07T10:37:27;4.15;;;1.90;;
80123;SDS011;69433;48.642;9.142;2023-05-07T10:39:53;2.20;;;1.80;;
80123;SDS011;69433;48.642;9.142;2023-05-07T10:42:19;4.45;;;2.00;;
80123;SDS011;69433;48.642;9.142;2023-05-07T10:44:44;3.88;;;2.00;;
80123;SDS011;69433;48.642;9.142;2023-05-07T10:47:11;2.22;;;1.80;;
80123;SDS011;69433;48.642;9.142;2023-05-07T10:52:14;2.80;;;1.92;;
80123;SDS011;69433;48.642;9.142;2023-05-07T10:54:40;2.58;;;1.75;;
80123;SDS011;69433;48.642;9.142;2023-05-07T10:59:56;2.90;;;1.63;;
80123;SDS011;69433;48.642;9.142;2023-05-07T11:02:22;4.22;;;1.60;;
80123;SDS011;69433;48.642;9.142;2023-05-07T11:07:47;2.50;;;1.70;;
80123;SDS011;69433;48.642;9.142;2023-05-07T11:10:39;3.10;;;1.60;;
80123;SDS011;69433;48.642;9.142;2023-05-07T11:13:13;2.30;;;1.70;;
80123;SDS011;69433;48.642;9.142;2023-05-07T11:15:39;3.00;;;1.65;;
80123;SDS011;69433;48.642;9.142;2023-05-07T11:18:08;3.17;;;2.00;;
80123;SDS011;69433;48.642;9.142;2023-05-07T11:28:39;4.40;;;1.63;;
80123;SDS011;69433;48.642;9.142;2023-05-07T11:31:06;2.33;;;1.80;;
80123;SDS011;69433;48.642;9.142;2023-05-07T11:33:32;2.70;;;1.60;;
80123;SDS011;69433;48.642;9.142;2023-05-07T11:35:59;3.03;;;1.65;;
80123;SDS011;69433;48.642;9.142;2023-05-07T11:38:25;3.88;;;1.67;;
80123;SDS011;69433;48.642;9.142;2023-05-07T11:40:57;2.30;;;1.70;;
80123;SDS011;69433;48.642;9.142;2023-05-07T11:43:25;2.20;;;1.67;;
80123;SDS011;69433;48.642;9.142;2023-05-07T11:45:51;10.68;;;1.90;;
80123;SDS011;69433;48.642;9.142;2023-05-07T11:48:16;6.18;;;1.80;;
80123;SDS011;69433;48.642;9.142;2023-05-07T11:50:51;3.85;;;1.90;;
80123;SDS011;69433;48.642;9.142;2023-05-07T11:53:24;8.23;;;1.90;;
80123;SDS011;69433;48.642;9.142;2023-05-07T11:55:56;3.50;;;1.83;;
80123;SDS011;69433;48.642;9.142;2023-05-07T11:58:23;5.22;;;1.80;;
80123;SDS011;69433;48.642;9.142;2023-05-07T12:00:50;4.75;;;1.77;;
80123;SDS011;69433;48.642;9.142;2023-05-07T12:03:16;4.03;;;2.00;;
80123;SDS011;69433;48.642;9.142;2023-05-07T12:05:43;5.32;;;1.92;;
80123;SDS011;69433;48.642;9.142;2023-05-07T12:08:13;2.95;;;1.60;;
80123;SDS011;69433;48.642;9.142;2023-05-07T12:10:50;3.00;;;1.80;;
80123;SDS011;69433;48.642;9.142;2023-05-07T12:13:23;4.70;;;2.10;;
80123;SDS011;69433;48.642;9.142;2023-05-07T12:15:53;3.28;;;1.80;;
80123;SDS011;69433;48.642;9.142;2023-05-07T12:18:19;2.40;;;1.75;;
80123;SDS011;69433;48.642;9.142;2023-05-07T12:20:46;2.25;;;1.67;;
80123;SDS011;69433;48.642;9.142;2023-05-07T12:23:12;4.13;;;1.83;;
80123;SDS011;69433;48.642;9.142;2023-05-07T12:25:38;3.38;;;2.00;;
80123;SDS011;69433;48.642;9.142;2023-05-07T12:28:07;9.55;;;1.75;;
80123;SDS011;69433;48.642;9.142;2023-05-07T12:30:38;8.35;;;1.90;;
80123;SDS011;69433;48.642;9.142;2023-05-07T12:33:04;2.42;;;1.80;;
80123;SDS011;69433;48.642;9.142;2023-05-07T12:35:30;2.70;;;1.52;;
80123;SDS011;69433;48.642;9.142;2023-05-07T12:38:00;6.90;;;1.80;;
80123;SDS011;69433;48.642;9.142;2023-05-07T12:40:40;4.80;;;2.10;;
80123;SDS011;69433;48.642;9.142;2023-05-07T12:43:07;3.88;;;2.25;;
80123;SDS011;69433;48.642;9.142;2023-05-07T12:45:39;3.20;;;2.10;;
80123;SDS011;69433;48.642;9.142;2023-05-07T12:48:06;3.95;;;1.65;;
80123;SDS011;69433;48.642;9.142;2023-05-07T12:50:32;2.55;;;1.50;;
80123;SDS011;69433;48.642;9.142;2023-05-07T12:53:02;2.95;;;1.90;;
80123;SDS011;69433;48.642;9.142;2023-05-07T12:57:56;3.05;;;2.00;;
80123;SDS011;69433;48.642;9.142;2023-05-07T13:00:33;3.42;;;1.83;;
80123;SDS011;69433;48.642;9.142;2023-05-07T13:03:02;4.22;;;1.75;;
80123;SDS011;69433;48.642;9.142;2023-05-07T13:05:28;3.22;;;1.83;;
80123;SDS011;69433;48.642;9.142;2023-05-07T13:07:56;2.40;;;1.90;;
80123;SDS011;69433;48.642;9.142;2023-05-07T13:10:23;5.28;;;1.98;;
80123;SDS011;69433;48.642;9.142;2023-05-07T13:12:49;2.78;;;1.90;;
80123;SDS011;69433;48.642;9.142;2023-05-07T13:15:14;3.03;;;1.92;;
80123;SDS011;69433;48.642;9.142;2023-05-07T13:17:40;3.22;;;1.90;;
80123;SDS011;69433;48.642;9.142;2023-05-07T13:20:05;3.00;;;1.70;;
80123;SDS011;69433;48.642;9.142;2023-05-07T13:22:33;3.03;;;1.70;;
80123;SDS011;69433;48.642;9.142;2023-05-07T13:24:58;3.10;;;1.80;;
80123;SDS011;69433;48.642;9.142;2023-05-07T13:27:23;2.83;;;1.75;;
80123;SDS011;69433;48.642;9.142;2023-05-07T13:29:51;2.90;;;1.95;;
80123;SDS011;69433;48.642;9.142;2023-05-07T13:32:17;2.58;;;1.83;;
80123;SDS011;69433;48.642;9.142;2023-05-07T13:34:43;3.15;;;2.05;;
80123;SDS011;69433;48.642;9.142;2023-05-07T13:37:08;2.88;;;1.75;;
80123;SDS011;69433;48.642;9.142;2023-05-07T13:39:33;3.53;;;1.85;;
80123;SDS011;69433;48.642;9.142;2023-05-07T13:41:59;2.50;;;1.88;;
80123;SDS011;69433;48.642;9.142;2023-05-07T13:44:24;3.25;;;1.90;;
80123;SDS011;69433;48.642;9.142;2023-05-07T13:46:49;4.00;;;2.00;;
80123;SDS011;69433;48.642;9.142;2023-05-07T13:49:15;4.53;;;1.70;;
80123;SDS011;69433;48.642;9.142;2023-05-07T13:51:40;3.83;;;1.70;;
80123;SDS011;69433;48.642;9.142;2023-05-07T13:54:05;2.75;;;1.73;;
80123;SDS011;69433;48.642;9.142;2023-05-07T13:56:31;3.33;;;1.90;;
80123;SDS011;69433;48.642;9.142;2023-05-07T13:58:57;4.40;;;1.80;;
80123;SDS011;69433;48.642;9.142;2023-05-07T14:01:23;3.58;;;1.98;;
80123;SDS011;69433;48.642;9.142;2023-05-07T14:03:48;3.90;;;1.95;;
80123;SDS011;69433;48.642;9.142;2023-05-07T14:06:14;2.58;;;1.65;;
80123;SDS011;69433;48.642;9.142;2023-05-07T14:08:39;2.78;;;1.63;;
80123;SDS011;69433;48.642;9.142;2023-05-07T14:11:05;4.13;;;2.03;;
80123;SDS011;69433;48.642;9.142;2023-05-07T14:13:31;2.70;;;1.77;;
80123;SDS011;69433;48.642;9.142;2023-05-07T14:15:57;3.78;;;2.08;;
80123;SDS011;69433;48.642;9.142;2023-05-07T14:18:23;4.45;;;1.90;;
80123;SDS011;69433;48.642;9.142;2023-05-07T14:20:48;2.83;;;1.80;;
80123;SDS011;69433;48.642;9.142;2023-05-07T14:23:13;3.97;;;1.83;;
80123;SDS011;69433;48.642;9.142;2023-05-07T14:25:39;2.85;;;1.70;;
80123;SDS011;69433;48.642;9.142;2023-05-07T14:28:06;2.75;;;1.70;;
80123;SDS011;69433;48.642;9.142;2023-05-07T14:30:31;3.42;;;1.98;;
80123;SDS011;69433;48.642;9.142;2023-05-07T14:32:56;3.25;;;1.90;;
80123;SDS011;69433;48.642;9.142;2023-05-07T14:35:22;3.33;;;1.95;;
80123;SDS011;69433;48.642;9.142;2023-05-07T14:37:47;3.08;;;1.80;;
80123;SDS011;69433;48.642;9.142;2023-05-07T14:40:12;5.32;;;1.90;;
80123;SDS011;69433;48.642;9.142;2023-05-07T14:42:38;4.18;;;2.00;;
80123;SDS011;69433;48.642;9.142;2023-05-07T14:45:03;4.40;;;2.30;;
80123;SDS011;69433;48.642;9.142;2023-05-07T14:47:29;2.50;;;1.80;;
80123;SDS011;69433;48.642;9.142;2023-05-07T14:49:54;3.10;;;1.92;;
80123;SDS011;69433;48.642;9.142;2023-05-07T14:52:21;2.75;;;1.77;;
80123;SDS011;69433;48.642;9.142;2023-05-07T14:54:46;3.38;;;1.80;;
80123;SDS011;69433;48.642;9.142;2023-05-07T14:57:13;2.83;;;2.03;;
80123;SDS011;69433;48.642;9.142;2023-05-07T14:59:41;3.95;;;2.15;;
80123;SDS011;69433;48.642;9.142;2023-05-07T15:02:06;3.97;;;2.00;;
80123;SDS011;69433;48.642;9.142;2023-05-07T15:04:34;4.28;;;2.13;;
80123;SDS011;69433;48.642;9.142;2023-05-07T15:06:59;2.65;;;1.98;;
80123;SDS011;69433;48.642;9.142;2023-05-07T15:09:25;6.63;;;2.15;;